Time;durP1;ratioP1;P1;durP2;ratioP2;P2;SDS_P1;SDS_P2;PMS_P1;PMS_P2;Temp;Humidity;BMP_temperature;BMP_pressure;BME280_temperature;BME280_humidity;BME280_pressure;Samples;Min_cycle;Max_cycle;Signal;HPM_P1;HPM_P2
2022/10/04 00:01:45;;;;;;;10.60;7.22;;;14.50;99.90;;;;;;4956505;28;94757;-72
2022/10/04 00:04:22;;;;;;;12.55;7.63;;;14.60;99.90;;;;;;4957690;28;92525;-72
2022/10/04 00:06:53;;;;;;;12.25;6.95;;;14.60;99.90;;;;;;4956471;28;95689;-72
2022/10/04 00:09:23;;;;;;;13.25;7.53;;;14.60;99.90;;;;;;4957423;28;92426;-72
2022/10/04 00:11:53;;;;;;;12.15;7.63;;;14.60;99.90;;;;;;4940040;28;92476;-72
2022/10/04 00:14:37;;;;;;;14.48;7.10;;;14.60;99.90;;;;;;4939971;28;93043;-72
2022/10/04 00:17:13;;;;;;;14.43;8.00;;;14.60;99.90;;;;;;4972363;28;95730;-72
2022/10/04 00:19:46;;;;;;;10.90;8.32;;;14.50;99.90;;;;;;4956780;28;93062;-72
2022/10/04 00:22:18;;;;;;;12.80;8.00;;;14.60;99.90;;;;;;4972360;28;92527;-72
2022/10/04 00:25:16;;;;;;;14.70;8.23;;;14.50;99.90;;;;;;4971641;28;92503;-72
2022/10/04 00:28:20;;;;;;;11.30;7.05;;;14.60;99.90;;;;;;4955747;28;96854;-72
2022/10/04 00:31:20;;;;;;;12.75;8.00;;;14.60;99.90;;;;;;4957137;28;95219;-72
2022/10/04 00:33:47;;;;;;;13.85;7.97;;;14.50;99.90;;;;;;4951586;28;93718;-72
2022/10/04 00:36:23;;;;;;;11.98;7.30;;;14.40;99.90;;;;;;4972005;28;92483;-72
2022/10/04 00:39:08;;;;;;;14.43;9.00;;;14.50;99.90;;;;;;4939470;28;96026;-72
2022/10/04 00:41:56;;;;;;;12.90;7.57;;;14.50;99.90;;;;;;4956094;28;92898;-72
2022/10/04 00:44:35;;;;;;;13.65;7.75;;;14.50;99.90;;;;;;4955803;28;92499;-72
2022/10/04 00:47:12;;;;;;;9.70;7.43;;;14.40;99.90;;;;;;4957711;28;91690;-72
2022/10/04 00:49:44;;;;;;;13.75;7.70;;;14.40;99.90;;;;;;4955736;28;93062;-72
2022/10/04 00:52:28;;;;;;;10.38;7.63;;;14.40;99.90;;;;;;4956870;28;93128;-72
2022/10/04 00:55:01;;;;;;;;;;;14.40;99.90;;;;;;4956394;28;94758;-72
2022/10/04 00:57:41;;;;;;;12.57;7.33;;;14.30;99.90;;;;;;4973045;28;92490;-72
2022/10/04 01:00:18;;;;;;;10.43;8.25;;;14.30;99.90;;;;;;4955527;28;93354;-72
2022/10/04 01:03:01;;;;;;;11.93;7.63;;;14.30;99.90;;;;;;4955613;28;95329;-72
2022/10/04 01:05:37;;;;;;;15.52;8.63;;;14.30;99.90;;;;;;4955912;28;92675;-72
2022/10/04 01:08:17;;;;;;;15.75;8.75;;;14.30;99.90;;;;;;4939158;28;92502;-72
2022/10/04 01:11:25;;;;;;;10.48;8.43;;;14.30;99.90;;;;;;4956636;28;92359;-72
2022/10/04 01:14:07;;;;;;;14.07;9.25;;;14.30;99.90;;;;;;4954410;28;95877;-72
2022/10/04 01:16:36;;;;;;;18.10;8.88;;;14.30;99.90;;;;;;4955433;28;92973;-72
2022/10/04 01:19:21;;;;;;;14.85;8.50;;;14.20;99.90;;;;;;4971596;28;93012;-72
2022/10/04 01:22:04;;;;;;;12.00;8.52;;;14.30;99.90;;;;;;4955384;28;95572;-72
2022/10/04 01:24:42;;;;;;;17.63;9.43;;;14.30;99.90;;;;;;4954978;28;95449;-72
2022/10/04 01:27:33;;;;;;;15.82;9.52;;;14.30;99.90;;;;;;4956266;28;92465;-72
2022/10/04 01:30:03;;;;;;;13.60;9.52;;;14.30;99.90;;;;;;4955102;28;92612;-72
2022/10/04 01:32:30;;;;;;;13.05;9.38;;;14.20;99.90;;;;;;4971116;28;96007;-72
2022/10/04 01:34:58;;;;;;;14.43;9.85;;;14.20;99.90;;;;;;4969991;28;99059;-72
2022/10/04 01:37:26;;;;;;;16.13;9.68;;;14.20;99.90;;;;;;4955887;28;92349;-72
2022/10/04 01:39:53;;;;;;;17.08;9.25;;;14.20;99.90;;;;;;4955614;28;92668;-72
2022/10/04 01:42:26;;;;;;;13.93;9.88;;;14.20;99.90;;;;;;4956037;28;93239;-72
2022/10/04 01:45:08;;;;;;;14.15;9.32;;;14.20;99.90;;;;;;4956495;28;93107;-72
2022/10/04 01:47:50;;;;;;;17.02;9.07;;;14.20;99.90;;;;;;4955134;28;94773;-72
2022/10/04 01:50:32;;;;;;;12.77;9.20;;;14.20;99.90;;;;;;4956176;28;92506;-72
2022/10/04 01:53:19;;;;;;;17.27;9.30;;;14.20;99.90;;;;;;4955023;28;93494;-72
2022/10/04 01:55:50;;;;;;;12.88;10.10;;;14.20;99.90;;;;;;4956092;28;92961;-72
2022/10/04 01:58:22;;;;;;;12.35;9.30;;;14.20;99.90;;;;;;4955532;28;92435;-72
2022/10/04 02:01:13;;;;;;;12.15;8.73;;;14.20;99.90;;;;;;4956309;28;92530;-72
2022/10/04 02:03:53;;;;;;;15.05;9.63;;;14.20;99.90;;;;;;4934517;28;95827;-72
2022/10/04 02:06:22;;;;;;;12.45;10.07;;;14.20;99.90;;;;;;4954650;28;95953;-72
2022/10/04 02:08:56;;;;;;;14.70;9.27;;;14.10;99.90;;;;;;4970812;28;92396;-72
2022/10/04 02:11:29;;;;;;;12.90;9.77;;;14.10;99.90;;;;;;4956009;28;92423;-72
2022/10/04 02:13:56;;;;;;;14.60;10.10;;;14.10;99.90;;;;;;4954700;28;95953;-72
2022/10/04 02:16:25;;;;;;;14.48;10.40;;;14.10;99.90;;;;;;4955123;28;94343;-72
2022/10/04 02:18:53;;;;;;;12.77;8.75;;;14.10;99.90;;;;;;4954203;28;92565;-72
2022/10/04 02:21:22;;;;;;;15.30;9.32;;;14.20;99.90;;;;;;4954320;28;92531;-72
2022/10/04 02:23:51;;;;;;;14.20;9.40;;;14.20;99.90;;;;;;4955722;28;93170;-72
2022/10/04 02:26:18;;;;;;;18.00;9.68;;;14.20;99.90;;;;;;4954737;28;100869;-72
2022/10/04 02:28:45;;;;;;;14.52;10.50;;;14.20;99.90;;;;;;4938311;28;92455;-72
2022/10/04 02:33:59;;;;;;;17.00;10.32;;;14.10;99.90;;;;;;4954423;28;93471;-72
2022/10/04 02:36:28;;;;;;;14.95;10.73;;;14.10;99.90;;;;;;4954756;28;92872;-72
2022/10/04 02:39:06;;;;;;;14.43;10.02;;;14.10;99.90;;;;;;4953877;28;95429;-72
2022/10/04 02:41:48;;;;;;;16.77;10.25;;;14.10;99.90;;;;;;4970291;28;92504;-72
2022/10/04 02:44:36;;;;;;;15.60;10.02;;;14.10;99.90;;;;;;4954729;28;93456;-72
2022/10/04 02:47:30;;;;;;;12.63;10.10;;;14.10;99.90;;;;;;4955555;28;93218;-72
2022/10/04 02:50:05;;;;;;;16.33;10.35;;;14.10;99.90;;;;;;4957343;28;92432;-72
2022/10/04 02:52:48;;;;;;;13.48;10.55;;;14.00;99.90;;;;;;4956785;28;92421;-72
2022/10/04 02:55:26;;;;;;;17.88;11.00;;;14.00;99.90;;;;;;4973242;28;95753;-72
2022/10/04 02:57:54;;;;;;;17.02;12.05;;;13.90;99.90;;;;;;4958556;28;91923;-72
2022/10/04 03:00:25;;;;;;;13.20;10.63;;;13.90;99.90;;;;;;4958352;28;92567;-72
2022/10/04 03:03:09;;;;;;;15.45;10.40;;;13.90;99.90;;;;;;4958186;28;92443;-72
2022/10/04 03:05:38;;;;;;;15.18;10.45;;;13.90;99.90;;;;;;4955205;28;98336;-72
2022/10/04 03:08:06;;;;;;;16.85;11.70;;;13.90;99.90;;;;;;4957854;28;95506;-72
2022/10/04 03:10:34;;;;;;;13.57;10.70;;;13.90;99.90;;;;;;4940707;28;92466;-72
2022/10/04 03:13:02;;;;;;;14.95;10.82;;;13.80;99.90;;;;;;4957927;28;95313;-72
2022/10/04 03:15:30;;;;;;;19.55;11.55;;;13.90;99.90;;;;;;4957451;28;93111;-72
2022/10/04 03:17:58;;;;;;;21.13;11.70;;;13.90;99.90;;;;;;4956703;28;93105;-72
2022/10/04 03:20:26;;;;;;;14.60;10.90;;;13.80;99.90;;;;;;4957912;28;92434;-72
2022/10/04 03:22:55;;;;;;;17.17;11.13;;;13.80;99.90;;;;;;4958483;28;92188;-72
2022/10/04 03:25:30;;;;;;;17.38;11.65;;;13.80;99.90;;;;;;4957754;28;92995;-72
2022/10/04 03:28:01;;;;;;;20.00;11.90;;;13.80;99.90;;;;;;4957328;28;93078;-72
2022/10/04 03:30:30;;;;;;;18.67;11.65;;;13.70;99.90;;;;;;4971282;28;94868;-72
2022/10/04 03:32:58;;;;;;;16.67;10.88;;;13.70;99.90;;;;;;4956486;28;92475;-72
2022/10/04 03:35:37;;;;;;;18.35;11.73;;;13.70;99.90;;;;;;4956390;28;93345;-72
2022/10/04 03:38:07;;;;;;;14.90;11.48;;;13.70;99.90;;;;;;4972312;28;98763;-72
2022/10/04 03:40:37;;;;;;;15.25;10.63;;;13.70;99.90;;;;;;4957192;28;92472;-72
2022/10/04 03:43:05;;;;;;;15.07;10.40;;;13.70;99.90;;;;;;4972396;28;93612;-72
2022/10/04 03:45:34;;;;;;;22.00;11.27;;;13.70;99.90;;;;;;4939857;28;93306;-72
2022/10/04 03:48:05;;;;;;;17.05;10.82;;;13.70;99.90;;;;;;4957725;28;93068;-72
2022/10/04 03:50:38;;;;;;;15.52;11.90;;;13.70;99.90;;;;;;4957496;28;92478;-72
2022/10/04 03:53:10;;;;;;;12.35;10.15;;;13.70;99.90;;;;;;4957335;28;92371;-72
2022/10/04 03:55:44;;;;;;;11.50;9.50;;;13.70;99.90;;;;;;4955967;28;95588;-72
2022/10/04 03:58:16;;;;;;;;;;;13.60;99.90;;;;;;4972161;28;95279;-72
2022/10/04 04:01:08;;;;;;;13.25;10.40;;;13.50;99.90;;;;;;4958047;28;92499;-72
2022/10/04 04:04:14;;;;;;;16.50;10.90;;;13.50;99.90;;;;;;4955612;28;94321;-72
2022/10/04 04:06:53;;;;;;;16.80;10.98;;;13.60;99.90;;;;;;4972008;28;93200;-72
2022/10/04 04:09:34;;;;;;;13.48;10.90;;;13.50;99.90;;;;;;4956977;28;93025;-72
2022/10/04 04:12:09;;;;;;;13.83;10.53;;;13.50;99.90;;;;;;4957363;28;92891;-72
2022/10/04 04:14:37;;;;;;;19.50;10.73;;;13.50;99.90;;;;;;4957373;28;91611;-72
2022/10/04 04:17:24;;;;;;;19.65;11.13;;;13.50;99.90;;;;;;4956933;28;93964;-72
2022/10/04 04:19:52;;;;;;;12.95;10.40;;;13.50;99.90;;;;;;4957090;28;93148;-72
2022/10/04 04:22:20;;;;;;;15.25;9.75;;;13.50;99.90;;;;;;4955666;28;94906;-72
2022/10/04 04:24:49;;;;;;;15.85;10.70;;;13.50;99.90;;;;;;4956961;28;101700;-72
2022/10/04 04:27:17;;;;;;;13.88;9.65;;;13.50;99.90;;;;;;4956371;28;93311;-72
2022/10/04 04:29:53;;;;;;;13.70;11.70;;;13.50;99.90;;;;;;4939461;28;95617;-72
2022/10/04 04:32:29;;;;;;;19.85;10.63;;;13.50;99.90;;;;;;4957078;28;92893;-72
2022/10/04 04:34:59;;;;;;;12.85;9.63;;;13.50;99.90;;;;;;4955303;28;92509;-72
2022/10/04 04:37:26;;;;;;;17.65;11.60;;;13.50;99.90;;;;;;4957012;28;93275;-72
2022/10/04 04:39:54;;;;;;;22.60;11.02;;;13.50;99.90;;;;;;4956714;28;91891;-72
2022/10/04 04:42:34;;;;;;;14.63;11.07;;;13.50;99.90;;;;;;4955420;28;92431;-72
2022/10/04 04:45:16;;;;;;;12.73;10.70;;;13.50;99.90;;;;;;4956511;28;93966;-72
2022/10/04 04:47:49;;;;;;;15.82;11.07;;;13.50;99.90;;;;;;4969877;28;98312;-72
2022/10/04 04:50:18;;;;;;;17.98;11.15;;;13.50;99.90;;;;;;4956593;28;95555;-72
2022/10/04 04:52:52;;;;;;;16.35;11.05;;;13.50;99.90;;;;;;4954933;28;92576;-72
2022/10/04 04:55:28;;;;;;;17.30;11.75;;;13.50;99.90;;;;;;4938974;28;93357;-72
2022/10/04 04:58:03;;;;;;;18.83;11.97;;;13.50;99.90;;;;;;4971137;28;95958;-72
2022/10/04 05:00:34;;;;;;;17.00;11.88;;;13.50;99.90;;;;;;4954871;28;97970;-72
2022/10/04 05:03:04;;;;;;;16.35;12.23;;;13.50;99.90;;;;;;4971012;28;92688;-72
2022/10/04 05:05:33;;;;;;;19.02;11.40;;;13.50;99.90;;;;;;4955465;28;91689;-72
2022/10/04 05:08:14;;;;;;;22.23;12.80;;;13.50;99.90;;;;;;4954573;28;93305;-72
2022/10/04 05:10:46;;;;;;;21.80;12.95;;;13.50;99.90;;;;;;4970776;28;95852;-72
2022/10/04 05:13:14;;;;;;;17.95;11.98;;;13.50;99.90;;;;;;4955279;28;94854;-72
2022/10/04 05:15:42;;;;;;;18.38;12.63;;;13.40;99.90;;;;;;4956032;28;92444;-72
2022/10/04 05:18:30;;;;;;;19.65;12.85;;;13.40;99.90;;;;;;4955887;28;93432;-72
2022/10/04 05:21:13;;;;;;;22.08;14.38;;;13.40;99.90;;;;;;4955928;28;93096;-72
2022/10/04 05:23:40;;;;;;;19.38;14.45;;;13.30;99.90;;;;;;4954711;28;93001;-72
2022/10/04 05:26:13;;;;;;;21.75;14.68;;;13.30;99.90;;;;;;4955278;28;92456;-72
2022/10/04 05:28:40;;;;;;;22.50;13.90;;;13.30;99.90;;;;;;4956057;28;97500;-72
2022/10/04 05:31:15;;;;;;;23.75;14.63;;;13.20;99.90;;;;;;4955948;28;95529;-72
2022/10/04 05:33:49;;;;;;;18.55;13.85;;;13.20;99.90;;;;;;4956144;28;92423;-72
2022/10/04 05:36:42;;;;;;;23.42;15.10;;;13.20;99.90;;;;;;4970893;28;92571;-72
2022/10/04 05:39:40;;;;;;;29.73;16.15;;;13.20;99.90;;;;;;4969296;28;98184;-72
2022/10/04 05:42:23;;;;;;;23.52;15.20;;;13.10;99.90;;;;;;4955715;28;95259;-72
2022/10/04 05:44:52;;;;;;;23.95;15.23;;;13.10;99.90;;;;;;4955624;28;92372;-72
2022/10/04 05:47:23;;;;;;;23.70;15.15;;;13.00;99.90;;;;;;4970742;28;92529;-72
2022/10/04 05:49:56;;;;;;;15.73;13.98;;;13.00;99.90;;;;;;4955072;28;93224;-72
2022/10/04 05:52:35;;;;;;;24.73;15.15;;;13.00;99.90;;;;;;4955566;28;93201;-72
2022/10/04 05:55:20;;;;;;;25.10;15.18;;;13.00;99.90;;;;;;4955527;28;92482;-72
2022/10/04 05:57:57;;;;;;;21.27;15.48;;;13.00;99.90;;;;;;4954596;28;91887;-72
2022/10/04 06:01:01;;;;;;;22.70;16.17;;;12.90;99.90;;;;;;4954040;28;96065;-72
2022/10/04 06:03:53;;;;;;;20.83;15.20;;;12.90;99.90;;;;;;4955279;28;93016;-72
2022/10/04 06:06:48;;;;;;;22.35;15.05;;;12.80;99.90;;;;;;4954370;28;94937;-72
2022/10/04 06:09:23;;;;;;;22.17;15.10;;;12.80;99.90;;;;;;4955617;28;92365;-72
2022/10/04 06:11:55;;;;;;;22.13;16.13;;;12.70;99.90;;;;;;4969885;28;95954;-72
2022/10/04 06:14:31;;;;;;;24.95;15.23;;;12.80;99.90;;;;;;4970633;28;93213;-74
2022/10/04 06:17:30;;;;;;;21.05;16.05;;;12.80;99.90;;;;;;4970336;28;92578;-72
2022/10/04 06:20:34;;;;;;;21.05;15.45;;;12.80;99.90;;;;;;4953527;28;92582;-72
2022/10/04 06:23:05;;;;;;;19.08;15.30;;;12.70;99.90;;;;;;4940287;28;96143;-72
2022/10/04 06:26:09;;;;;;;24.58;16.30;;;12.70;99.90;;;;;;4958980;28;93234;-72
2022/10/04 06:28:47;;;;;;;22.20;15.50;;;12.70;99.90;;;;;;4937068;28;92587;-72
2022/10/04 06:31:39;;;;;;;25.08;17.13;;;12.70;99.90;;;;;;4973371;28;92378;-72
2022/10/04 06:34:16;;;;;;;23.35;15.50;;;12.70;99.90;;;;;;4972025;28;95702;-72
2022/10/04 06:37:19;;;;;;;23.60;16.30;;;12.70;99.90;;;;;;4973396;28;98288;-72
2022/10/04 06:40:14;;;;;;;19.75;14.60;;;12.80;99.90;;;;;;4958641;28;92424;-72
2022/10/04 06:42:52;;;;;;;;;;;12.80;99.90;;;;;;4957643;28;92515;-72
2022/10/04 06:45:44;;;;;;;19.73;14.32;;;12.70;99.90;;;;;;4958530;28;95767;-72
2022/10/04 06:48:23;;;;;;;20.80;13.43;;;12.80;99.90;;;;;;4958014;28;92498;-72
2022/10/04 06:51:00;;;;;;;15.75;13.98;;;12.90;99.90;;;;;;4958279;28;92378;-72
2022/10/04 06:53:39;;;;;;;19.67;14.18;;;13.00;99.90;;;;;;4958678;28;91892;-72
2022/10/04 06:56:18;;;;;;;16.88;14.35;;;13.20;99.90;;;;;;4957999;28;92571;-72
2022/10/04 06:58:59;;;;;;;17.17;15.10;;;13.30;99.90;;;;;;4956705;28;96037;-72
2022/10/04 07:01:32;;;;;;;20.90;15.10;;;13.30;99.90;;;;;;4972244;28;94910;-72
2022/10/04 07:04:36;;;;;;;16.52;13.75;;;13.40;99.90;;;;;;4956700;28;92520;-72
2022/10/04 07:07:34;;;;;;;19.75;14.45;;;13.50;99.90;;;;;;4970608;28;93062;-72
2022/10/04 07:10:07;;;;;;;19.63;14.73;;;13.50;99.90;;;;;;4957784;28;93049;-72
2022/10/04 07:12:39;;;;;;;21.10;14.40;;;13.60;99.90;;;;;;4958261;28;92629;-72
2022/10/04 07:15:18;;;;;;;16.58;12.77;;;13.80;99.90;;;;;;4956661;28;92404;-72
2022/10/04 07:17:48;;;;;;;15.50;13.55;;;13.90;99.90;;;;;;4940307;28;95909;-72
2022/10/04 07:20:32;;;;;;;14.57;12.88;;;14.00;99.90;;;;;;4956541;28;94179;-72
2022/10/04 07:23:05;;;;;;;17.13;13.02;;;14.10;99.90;;;;;;4956190;28;92590;-72
2022/10/04 07:25:57;;;;;;;16.00;12.95;;;14.20;99.90;;;;;;4972922;28;92520;-72
2022/10/04 07:31:27;;;;;;;20.27;13.63;;;14.40;99.90;;;;;;4957508;28;95347;-72
2022/10/04 07:33:59;;;;;;;13.50;10.95;;;14.60;99.90;;;;;;4956431;28;92580;-72
2022/10/04 07:36:49;;;;;;;17.27;11.82;;;14.60;99.90;;;;;;4957792;28;92428;-72
2022/10/04 07:39:27;;;;;;;14.82;11.00;;;14.80;99.90;;;;;;4957422;28;93184;-72
2022/10/04 07:42:17;;;;;;;16.67;10.75;;;14.90;99.90;;;;;;4972534;28;92981;-72
2022/10/04 07:44:55;;;;;;;16.25;10.18;;;15.10;99.90;;;;;;4952027;28;92441;-72
2022/10/04 07:47:26;;;;;;;13.48;10.52;;;15.10;99.90;;;;;;4956543;28;93042;-72
2022/10/04 07:49:54;;;;;;;14.57;10.70;;;15.30;99.90;;;;;;4957305;28;93415;-72
2022/10/04 07:52:47;;;;;;;14.70;9.55;;;15.60;99.90;;;;;;4972189;28;95639;-72
2022/10/04 07:55:23;;;;;;;12.65;9.50;;;15.90;99.90;;;;;;4956750;28;94806;-72
2022/10/04 07:58:12;;;;;;;14.70;8.55;;;16.30;99.90;;;;;;4956769;28;92541;-72
2022/10/04 08:00:40;;;;;;;11.68;10.48;;;16.80;99.90;;;;;;4972640;28;95677;-73
2022/10/04 08:03:13;;;;;;;11.45;8.50;;;17.10;99.90;;;;;;4956920;28;92516;-72
2022/10/04 08:05:46;;;;;;;11.20;9.83;;;17.50;99.90;;;;;;4957885;28;93567;-72
2022/10/04 08:08:39;;;;;;;12.32;9.63;;;17.70;99.90;;;;;;4957807;28;92392;-73
2022/10/04 08:11:44;;;;;;;12.18;9.50;;;18.00;99.90;;;;;;4972260;28;94226;-72
2022/10/04 08:14:32;;;;;;;12.18;9.18;;;18.50;99.90;;;;;;4956721;28;93205;-72
2022/10/04 08:17:23;;;;;;;12.73;9.38;;;18.90;99.90;;;;;;4956604;28;92555;-73
2022/10/04 08:20:02;;;;;;;12.60;9.40;;;19.10;99.90;;;;;;4957458;28;92447;-72
2022/10/04 08:22:31;;;;;;;14.57;10.20;;;19.10;99.90;;;;;;4956032;28;94749;-73
2022/10/04 08:25:16;;;;;;;14.48;11.13;;;19.10;99.90;;;;;;4956612;28;95443;-72
2022/10/04 08:31:00;;;;;;;13.23;10.07;;;18.70;99.90;;;;;;4956990;28;92521;-72
2022/10/04 08:33:55;;;;;;;12.35;10.25;;;18.60;99.90;;;;;;4955199;28;95689;-72
2022/10/04 08:36:31;;;;;;;12.52;9.68;;;18.40;99.90;;;;;;4955014;28;94194;-73
2022/10/04 08:39:00;;;;;;;14.02;9.68;;;18.20;99.90;;;;;;4957350;28;92349;-72
2022/10/04 08:41:38;;;;;;;12.18;9.30;;;18.10;99.90;;;;;;4972218;28;91709;-72
2022/10/04 08:44:32;;;;;;;14.32;9.57;;;17.80;99.90;;;;;;4955128;28;95808;-72
2022/10/04 08:47:28;;;;;;;14.27;9.15;;;17.70;99.90;;;;;;4971914;28;94353;-73
2022/10/04 08:50:08;;;;;;;15.95;10.05;;;17.50;99.90;;;;;;4946341;28;94918;-73
2022/10/04 08:52:43;;;;;;;14.27;9.35;;;17.30;99.90;;;;;;4956745;28;92449;-72
2022/10/04 08:55:33;;;;;;;16.05;9.93;;;17.20;99.90;;;;;;4957170;28;93073;-72
2022/10/04 08:58:22;;;;;;;13.15;8.55;;;17.20;99.90;;;;;;4957024;28;93218;-72
2022/10/04 09:01:21;;;;;;;12.15;8.63;;;17.00;99.90;;;;;;4956047;28;92600;-72
2022/10/04 09:04:20;;;;;;;13.85;9.02;;;17.10;99.90;;;;;;4956957;28;92921;-72
2022/10/04 09:07:23;;;;;;;12.48;8.02;;;17.10;99.90;;;;;;4956895;28;93137;-72
2022/10/04 09:09:50;;;;;;;9.75;7.85;;;17.10;99.90;;;;;;4938476;28;93626;-72
2022/10/04 09:12:43;;;;;;;11.65;8.50;;;17.00;99.90;;;;;;4939032;28;92481;-73
2022/10/04 09:15:20;;;;;;;12.63;8.60;;;17.10;99.90;;;;;;4956955;28;92436;-72
2022/10/04 09:18:00;;;;;;;11.25;7.05;;;17.20;99.90;;;;;;4970225;28;97510;-72
2022/10/04 09:20:48;;;;;;;9.70;5.53;;;17.20;99.90;;;;;;4955082;28;95273;-72
2022/10/04 09:23:31;;;;;;;9.82;7.03;;;17.30;99.90;;;;;;4955504;28;92552;-72
2022/10/04 09:26:43;;;;;;;8.07;5.97;;;17.30;99.90;;;;;;4956623;28;92506;-72
2022/10/04 09:29:42;;;;;;;12.73;6.13;;;17.30;99.90;;;;;;4918227;28;95958;-72
2022/10/04 09:32:27;;;;;;;9.30;7.25;;;17.40;99.90;;;;;;4905108;28;94508;-72
2022/10/04 09:35:06;;;;;;;8.80;6.45;;;17.40;99.90;;;;;;4952284;28;92469;-72
2022/10/04 09:37:39;;;;;;;9.40;5.75;;;17.50;99.90;;;;;;4956722;28;91701;-72
2022/10/04 09:40:39;;;;;;;9.63;6.18;;;17.50;99.90;;;;;;4956278;28;93291;-72
2022/10/04 09:43:42;;;;;;;11.15;6.65;;;17.70;99.90;;;;;;4955066;28;93036;-73
2022/10/04 09:46:36;;;;;;;7.85;6.20;;;17.70;99.90;;;;;;4969962;28;94851;-72
2022/10/04 09:49:21;;;;;;;10.50;7.47;;;17.80;99.90;;;;;;4946547;28;92476;-72
2022/10/04 09:52:18;;;;;;;8.65;7.75;;;17.80;99.90;;;;;;4956211;28;93194;-72
2022/10/04 09:54:57;;;;;;;9.15;7.57;;;17.90;99.90;;;;;;4956237;28;92484;-72
2022/10/04 09:57:42;;;;;;;9.95;6.25;;;17.80;99.90;;;;;;4970103;28;92555;-73
2022/10/04 10:00:23;;;;;;;10.25;6.25;;;17.90;99.90;;;;;;4970969;28;92491;-72
2022/10/04 10:03:12;;;;;;;13.55;6.43;;;18.00;99.90;;;;;;4956057;28;92992;-72
2022/10/04 10:05:59;;;;;;;9.10;6.20;;;18.10;99.90;;;;;;4955933;28;93613;-73
2022/10/04 10:08:38;;;;;;;9.77;6.47;;;18.10;99.90;;;;;;4955029;28;92542;-72
2022/10/04 10:14:35;;;;;;;10.57;6.88;;;18.50;99.90;;;;;;4954599;28;95659;-72
2022/10/04 10:17:21;;;;;;;10.23;6.90;;;18.50;99.90;;;;;;4954463;28;95529;-72
2022/10/04 10:20:00;;;;;;;7.65;6.40;;;18.60;99.90;;;;;;4956010;28;92635;-72
2022/10/04 10:22:54;;;;;;;8.07;5.30;;;18.70;99.90;;;;;;4955847;28;92934;-72
2022/10/04 10:25:40;;;;;;;;;;;18.70;99.90;;;;;;4971156;28;95870;-73
2022/10/04 10:28:58;;;;;;;8.70;5.32;;;18.60;99.90;;;;;;4955378;28;92694;-73
2022/10/04 10:31:52;;;;;;;8.82;6.35;;;18.70;99.90;;;;;;4917683;28;93255;-72
2022/10/04 10:34:37;;;;;;;9.73;6.80;;;18.70;99.90;;;;;;4934616;28;91823;-73
2022/10/04 10:37:14;;;;;;;9.10;5.93;;;18.80;99.90;;;;;;4950533;28;93207;-73
2022/10/04 10:39:41;;;;;;;9.30;6.72;;;18.80;99.90;;;;;;4955122;28;92722;-73
2022/10/04 10:42:56;;;;;;;9.55;6.60;;;18.80;99.90;;;;;;4969708;28;95399;-72
2022/10/04 10:46:05;;;;;;;8.82;6.80;;;19.00;99.90;;;;;;4933503;28;93069;-72
2022/10/04 10:48:50;;;;;;;11.25;6.60;;;19.00;99.90;;;;;;4955266;28;93447;-73
2022/10/04 10:51:42;;;;;;;9.05;7.50;;;19.00;99.90;;;;;;4955520;28;93968;-72
2022/10/04 10:54:29;;;;;;;7.88;6.68;;;19.20;99.90;;;;;;4954048;28;92546;-72
2022/10/04 10:57:07;;;;;;;12.32;6.13;;;19.10;99.90;;;;;;4955557;28;92382;-72
2022/10/04 11:00:04;;;;;;;7.90;6.07;;;19.20;99.50;;;;;;4953750;28;95817;-73
2022/10/04 11:02:40;;;;;;;7.25;5.43;;;19.30;99.60;;;;;;4937640;28;97158;-72
2022/10/04 11:05:24;;;;;;;7.40;5.57;;;19.20;99.20;;;;;;4955483;28;92609;-72
2022/10/04 11:08:04;;;;;;;7.65;6.10;;;19.40;99.10;;;;;;4955059;28;92508;-72
2022/10/04 11:10:37;;;;;;;9.18;5.63;;;19.30;99.10;;;;;;4955540;28;98499;-73
2022/10/04 11:13:48;;;;;;;7.40;5.90;;;19.40;98.80;;;;;;4940344;28;97949;-72
2022/10/04 11:16:40;;;;;;;7.78;5.35;;;19.60;98.90;;;;;;4957428;28;92554;-72
2022/10/04 11:19:38;;;;;;;8.85;5.18;;;19.60;98.70;;;;;;4958760;28;92366;-73
2022/10/04 11:22:33;;;;;;;8.90;5.00;;;19.70;98.40;;;;;;4973444;28;93271;-72
2022/10/04 11:25:07;;;;;;;7.20;5.53;;;19.70;98.50;;;;;;4957140;28;92923;-73
2022/10/04 11:28:01;;;;;;;10.15;6.47;;;19.70;97.80;;;;;;4957551;28;92511;-73
2022/10/04 11:30:53;;;;;;;8.93;5.32;;;19.80;97.60;;;;;;4957744;28;92255;-73
2022/10/04 11:33:47;;;;;;;7.85;5.43;;;19.80;97.40;;;;;;4958158;28;93277;-73
2022/10/04 11:36:21;;;;;;;;;;;19.80;97.50;;;;;;4958448;28;92927;-73
2022/10/04 11:38:56;;;;;;;;;;;19.60;97.20;;;;;;4958657;28;94898;-73
2022/10/04 11:42:00;;;;;;;6.45;4.57;;;19.60;97.10;;;;;;4990868;28;92473;-73
2022/10/04 11:44:58;;;;;;;52.90;11.10;;;19.70;96.90;;;;;;4973047;28;94256;-73
2022/10/04 11:47:48;;;;;;;10.48;5.93;;;19.80;97.00;;;;;;4972554;28;93182;-72
2022/10/04 11:50:51;;;;;;;7.72;4.63;;;19.80;96.70;;;;;;4957145;28;92493;-72
2022/10/04 11:53:30;;;;;;;6.68;5.35;;;19.90;96.50;;;;;;4956824;28;92498;-73
2022/10/04 11:56:03;;;;;;;8.70;6.35;;;19.90;96.40;;;;;;4956664;28;93426;-73
2022/10/04 11:58:51;;;;;;;7.57;4.80;;;19.90;96.70;;;;;;4958160;28;93089;-73
2022/10/04 12:01:40;;;;;;;9.27;7.00;;;19.90;96.40;;;;;;4956511;28;92376;-73
2022/10/04 12:04:25;;;;;;;8.48;5.97;;;19.90;96.60;;;;;;4958144;28;92412;-72
2022/10/04 12:07:07;;;;;;;9.02;5.35;;;20.00;96.60;;;;;;4955029;28;95723;-73
2022/10/04 12:09:57;;;;;;;8.48;5.10;;;20.00;96.90;;;;;;4957410;28;95398;-73
2022/10/04 12:12:46;;;;;;;8.15;6.43;;;20.20;96.80;;;;;;4957998;28;92475;-73
2022/10/04 12:15:39;;;;;;;6.57;5.55;;;20.10;96.50;;;;;;4957801;28;92510;-73
2022/10/04 12:18:29;;;;;;;7.00;6.38;;;20.10;96.40;;;;;;4956284;28;95812;-73
2022/10/04 12:21:08;;;;;;;8.02;4.95;;;20.00;96.10;;;;;;4971763;28;94555;-73
2022/10/04 12:23:47;;;;;;;7.22;5.80;;;20.00;96.30;;;;;;4957734;28;92466;-73
2022/10/04 12:26:36;;;;;;;6.93;4.32;;;20.00;96.30;;;;;;4957089;28;91750;-73
2022/10/04 12:29:07;;;;;;;34.17;7.90;;;20.10;96.10;;;;;;4957414;28;92369;-72
2022/10/04 12:31:42;;;;;;;8.60;4.78;;;20.10;96.50;;;;;;4957389;28;92798;-73
2022/10/04 12:34:23;;;;;;;5.28;4.55;;;20.20;96.20;;;;;;4971151;28;94907;-73
2022/10/04 12:37:16;;;;;;;12.02;5.70;;;20.30;95.90;;;;;;4957244;28;92536;-73
2022/10/04 12:40:18;;;;;;;8.15;5.13;;;20.30;95.80;;;;;;4957185;28;93665;-73
2022/10/04 12:43:04;;;;;;;10.20;5.95;;;20.40;95.60;;;;;;4942447;28;93164;-73
2022/10/04 12:45:56;;;;;;;6.07;5.47;;;20.40;95.60;;;;;;4939549;28;92459;-73
2022/10/04 12:48:36;;;;;;;7.85;4.22;;;20.50;95.40;;;;;;4957227;28;92484;-72
2022/10/04 12:51:29;;;;;;;6.35;3.95;;;20.50;95.30;;;;;;4955835;28;93204;-72
2022/10/04 12:54:11;;;;;;;7.82;4.03;;;20.60;95.10;;;;;;4957237;28;93033;-73
2022/10/04 12:57:06;;;;;;;6.90;4.57;;;20.60;95.20;;;;;;4956090;28;93340;-73
2022/10/04 12:59:53;;;;;;;7.53;4.35;;;20.70;94.50;;;;;;4955747;28;92475;-72
2022/10/04 13:02:51;;;;;;;6.25;4.22;;;20.70;94.50;;;;;;4955756;28;95579;-73
2022/10/04 13:05:30;;;;;;;8.40;4.75;;;20.60;94.20;;;;;;4971544;28;97865;-72
2022/10/04 13:08:19;;;;;;;4.70;4.30;;;20.50;94.10;;;;;;4956737;28;92521;-73
2022/10/04 13:11:07;;;;;;;7.47;5.05;;;20.60;94.00;;;;;;4956920;28;92487;-73
2022/10/04 13:14:03;;;;;;;5.55;4.35;;;20.50;94.20;;;;;;4971542;28;96032;-73
2022/10/04 13:16:33;;;;;;;7.57;4.07;;;20.50;94.10;;;;;;4956655;28;93732;-73
2022/10/04 13:19:51;;;;;;;5.97;4.43;;;20.50;94.10;;;;;;4956822;28;92531;-73
2022/10/04 13:22:52;;;;;;;8.48;5.80;;;20.50;93.90;;;;;;4921647;28;91835;-73
2022/10/04 13:25:39;;;;;;;10.52;7.00;;;20.50;93.80;;;;;;4956667;28;93341;-73
2022/10/04 13:28:15;;;;;;;9.00;4.63;;;20.60;93.70;;;;;;4956008;28;92993;-73
2022/10/04 13:30:52;;;;;;;7.88;5.60;;;20.60;93.90;;;;;;4937603;28;94889;-73
2022/10/04 13:33:40;;;;;;;7.03;5.30;;;20.70;93.90;;;;;;4956763;28;92377;-72
2022/10/04 13:36:21;;;;;;;5.90;4.68;;;20.80;93.70;;;;;;4970858;28;95971;-73
2022/10/04 13:39:00;;;;;;;7.25;5.32;;;20.90;93.80;;;;;;4956538;28;92719;-73
2022/10/04 13:41:45;;;;;;;8.15;5.43;;;20.90;93.90;;;;;;4954984;28;92510;-73
2022/10/04 13:44:53;;;;;;;6.03;4.88;;;21.00;93.60;;;;;;4956189;28;92496;-73
2022/10/04 13:47:44;;;;;;;10.50;9.20;;;21.10;93.50;;;;;;4945401;28;93297;-73
2022/10/04 13:50:16;;;;;;;34.03;28.60;;;20.90;93.60;;;;;;4956480;28;93168;-73
2022/10/04 13:56:36;;;;;;;16.38;11.60;;;20.80;94.00;;;;;;4955222;28;93001;-72
2022/10/04 13:59:10;;;;;;;9.13;7.25;;;20.80;94.10;;;;;;4913129;28;95791;-73
2022/10/04 14:02:11;;;;;;;8.95;7.45;;;20.80;94.40;;;;;;4915086;28;95489;-73
2022/10/04 14:04:52;;;;;;;9.55;6.72;;;20.70;93.80;;;;;;4948174;28;92472;-72
2022/10/04 14:07:57;;;;;;;8.48;7.13;;;20.50;93.90;;;;;;4955961;28;92475;-73